Time;durP1;ratioP1;P1;durP2;ratioP2;P2;SDS_P1;SDS_P2;PMS_P1;PMS_P2;Temp;Humidity;BMP_temperature;BMP_pressure;BME280_temperature;BME280_humidity;BME280_pressure;Samples;Min_cycle;Max_cycle;Signal;HPM_P1;HPM_P2
2022/03/21 00:01:40;;;;;;;13.07;2.70;;;7.90;85.30;;;;;;6119427;23;20433;-68
2022/03/21 00:04:09;;;;;;;3.10;2.10;;;7.80;85.00;;;;;;6119899;23;20452;-68
2022/03/21 00:06:36;;;;;;;2.13;2.00;;;7.70;85.10;;;;;;6119889;23;20430;-68
2022/03/21 00:09:03;;;;;;;3.67;2.27;;;7.80;85.30;;;;;;6119838;23;20426;-68
2022/03/21 00:11:33;;;;;;;2.17;1.70;;;7.80;85.20;;;;;;6120111;23;20489;-68
2022/03/21 00:14:01;;;;;;;2.23;2.07;;;7.80;85.80;;;;;;6094338;23;20424;-68
2022/03/21 00:16:30;;;;;;;4.13;2.23;;;7.60;85.40;;;;;;6119964;23;20471;-68
2022/03/21 00:18:58;;;;;;;2.40;1.43;;;7.50;85.40;;;;;;6119474;23;20429;-68
2022/03/21 00:21:26;;;;;;;2.73;2.50;;;7.40;84.60;;;;;;6119488;23;20814;-68
2022/03/21 00:23:53;;;;;;;1.67;1.60;;;7.20;85.90;;;;;;6119923;23;20483;-68
2022/03/21 00:26:20;;;;;;;1.97;1.30;;;7.20;86.50;;;;;;6119227;23;20414;-68
2022/03/21 00:28:47;;;;;;;2.20;1.70;;;7.00;86.90;;;;;;6119584;23;20423;-68
2022/03/21 00:31:14;;;;;;;3.40;2.43;;;6.80;87.30;;;;;;6119337;23;20451;-68
2022/03/21 00:33:41;;;;;;;1.83;1.33;;;6.80;88.20;;;;;;6119522;23;20418;-68
2022/03/21 00:36:08;;;;;;;2.90;1.87;;;6.70;88.40;;;;;;6118742;23;20413;-68
2022/03/21 00:38:38;;;;;;;2.57;2.20;;;6.60;88.30;;;;;;6119498;23;20513;-68
2022/03/21 00:41:05;;;;;;;2.40;1.70;;;6.70;88.30;;;;;;6119696;23;20457;-68
2022/03/21 00:43:34;;;;;;;1.97;1.50;;;6.70;88.90;;;;;;6120872;23;20437;-68
2022/03/21 00:46:01;;;;;;;1.67;1.47;;;6.70;89.00;;;;;;6120610;23;20414;-68
2022/03/21 00:48:29;;;;;;;2.00;1.60;;;6.80;88.70;;;;;;6120749;23;20889;-68
2022/03/21 00:50:57;;;;;;;1.60;1.40;;;6.80;90.00;;;;;;6120815;23;20459;-68
2022/03/21 00:53:25;;;;;;;2.37;1.70;;;6.80;89.60;;;;;;6120753;23;20759;-68
2022/03/21 00:55:53;;;;;;;1.60;1.50;;;6.70;89.90;;;;;;6120581;23;20925;-68
2022/03/21 00:58:20;;;;;;;1.93;1.83;;;6.50;90.00;;;;;;6095077;23;20467;-68
2022/03/21 01:00:48;;;;;;;4.07;2.57;;;6.40;89.90;;;;;;6120047;23;20404;-68
2022/03/21 01:03:15;;;;;;;2.17;1.93;;;6.40;90.10;;;;;;6120446;23;20468;-68
2022/03/21 01:05:44;;;;;;;4.50;2.43;;;6.30;90.20;;;;;;6120174;23;20455;-68
2022/03/21 01:08:11;;;;;;;1.30;1.20;;;6.30;91.00;;;;;;6130244;23;20408;-68
2022/03/21 01:10:38;;;;;;;1.80;1.43;;;6.40;91.40;;;;;;6120632;23;20409;-68
2022/03/21 01:13:07;;;;;;;1.80;1.80;;;6.40;90.80;;;;;;6120561;23;20420;-68
2022/03/21 01:15:34;;;;;;;6.47;2.37;;;6.20;91.40;;;;;;6120194;23;20404;-68
2022/03/21 01:18:01;;;;;;;2.70;1.80;;;6.20;92.20;;;;;;6120731;23;20430;-68
2022/03/21 01:20:28;;;;;;;1.83;1.60;;;6.10;92.90;;;;;;6120845;23;20748;-68
2022/03/21 01:22:56;;;;;;;1.30;1.20;;;6.00;93.70;;;;;;6120972;23;20499;-68
2022/03/21 01:25:23;;;;;;;6.07;2.73;;;6.00;94.00;;;;;;6120685;23;20748;-68
2022/03/21 01:27:51;;;;;;;1.40;1.23;;;5.90;94.00;;;;;;6120662;23;20420;-68
2022/03/21 01:30:19;;;;;;;2.17;1.57;;;5.90;94.30;;;;;;6120213;23;20782;-68
2022/03/21 01:32:46;;;;;;;1.90;1.40;;;5.90;93.90;;;;;;6120105;23;20428;-68
2022/03/21 01:35:15;;;;;;;3.77;2.80;;;5.90;93.80;;;;;;6120119;23;20418;-68
2022/03/21 01:37:42;;;;;;;2.63;1.80;;;5.90;93.40;;;;;;6120965;23;20426;-68
2022/03/21 01:40:11;;;;;;;1.20;1.10;;;5.70;93.30;;;;;;6120211;23;20418;-68
2022/03/21 01:42:39;;;;;;;1.83;1.77;;;5.80;93.30;;;;;;6120457;23;20764;-68
2022/03/21 01:45:07;;;;;;;1.73;1.40;;;5.50;94.10;;;;;;6120660;23;20489;-68
2022/03/21 01:47:35;;;;;;;3.10;1.40;;;5.50;93.80;;;;;;6120147;23;20436;-69
2022/03/21 01:50:03;;;;;;;1.73;1.63;;;5.40;94.10;;;;;;6120560;23;20440;-68
2022/03/21 01:52:30;;;;;;;2.63;1.80;;;5.50;93.90;;;;;;6120177;23;20418;-69
2022/03/21 01:57:44;;;;;;;1.90;1.80;;;5.50;94.50;;;;;;6120307;23;20423;-68
2022/03/21 02:00:12;;;;;;;2.50;2.10;;;5.60;93.70;;;;;;6120255;23;20469;-68
2022/03/21 02:02:41;;;;;;;1.60;1.37;;;5.30;94.00;;;;;;6120015;23;20448;-68
2022/03/21 02:05:09;;;;;;;1.90;1.77;;;5.20;94.40;;;;;;6120366;23;20417;-68
2022/03/21 02:07:36;;;;;;;2.67;2.03;;;5.10;94.80;;;;;;6120234;23;20432;-68
2022/03/21 02:10:06;;;;;;;1.20;1.20;;;5.10;95.00;;;;;;6120377;23;20478;-68
2022/03/21 02:12:35;;;;;;;2.17;1.70;;;5.20;95.00;;;;;;6120742;23;20397;-68
2022/03/21 02:15:03;;;;;;;1.43;1.23;;;5.10;95.20;;;;;;6120209;23;20398;-68
2022/03/21 02:17:34;;;;;;;2.47;2.00;;;4.90;96.70;;;;;;6120445;23;21035;-68
2022/03/21 02:20:04;;;;;;;1.30;1.20;;;4.80;96.90;;;;;;6120040;23;20430;-68
2022/03/21 02:22:38;;;;;;;1.93;1.47;;;4.70;96.70;;;;;;6120526;23;20463;-68
2022/03/21 02:25:20;;;;;;;1.93;1.53;;;4.70;97.10;;;;;;6120570;23;20453;-68
2022/03/21 02:27:47;;;;;;;1.70;1.67;;;4.90;96.90;;;;;;6120311;23;20438;-68
2022/03/21 02:30:15;;;;;;;2.03;1.50;;;4.90;97.10;;;;;;6120000;23;20420;-69
2022/03/21 02:32:43;;;;;;;1.97;1.90;;;4.90;97.00;;;;;;6120455;23;20491;-68
2022/03/21 02:35:10;;;;;;;1.60;1.50;;;4.80;97.00;;;;;;6119912;23;20443;-68
2022/03/21 02:37:38;;;;;;;1.73;1.47;;;4.90;97.20;;;;;;6120085;23;20920;-68
2022/03/21 02:40:08;;;;;;;2.00;1.93;;;5.10;96.10;;;;;;6120309;23;20424;-68
2022/03/21 02:42:36;;;;;;;3.37;2.33;;;4.80;97.30;;;;;;6120600;23;20472;-69
2022/03/21 02:45:04;;;;;;;1.73;1.60;;;4.70;97.70;;;;;;6120166;23;20420;-69
2022/03/21 02:47:32;;;;;;;2.03;1.93;;;4.70;98.00;;;;;;6120088;23;20512;-68
2022/03/21 02:50:01;;;;;;;3.10;1.93;;;4.50;98.00;;;;;;6120145;23;20402;-68
2022/03/21 02:52:30;;;;;;;1.70;1.60;;;4.50;98.00;;;;;;6120010;23;20418;-68
2022/03/21 02:54:57;;;;;;;2.20;1.60;;;4.40;98.00;;;;;;6120187;23;20426;-68
2022/03/21 02:57:26;;;;;;;3.00;1.83;;;4.30;98.00;;;;;;6120402;23;20723;-68
2022/03/21 02:59:55;;;;;;;1.97;1.83;;;4.10;98.00;;;;;;6120622;23;20408;-68
2022/03/21 03:02:23;;;;;;;1.20;1.13;;;;;;;;;;6095224;23;20447;-68
2022/03/21 03:04:50;;;;;;;1.53;1.20;;;4.20;98.00;;;;;;6120249;23;20405;-68
2022/03/21 03:07:16;;;;;;;1.30;1.20;;;4.30;98.00;;;;;;6120344;23;20735;-68
2022/03/21 03:09:44;;;;;;;5.27;3.10;;;4.40;98.00;;;;;;6120191;23;20416;-68
2022/03/21 03:12:11;;;;;;;1.60;1.20;;;4.50;98.00;;;;;;6119974;23;20403;-68
2022/03/21 03:14:38;;;;;;;1.50;1.40;;;4.60;97.40;;;;;;6119703;23;20426;-68
2022/03/21 03:17:07;;;;;;;2.57;1.87;;;4.60;97.80;;;;;;6094232;23;20430;-68
2022/03/21 03:19:34;;;;;;;1.50;1.23;;;4.70;98.00;;;;;;6120194;23;20399;-68
2022/03/21 03:22:01;;;;;;;2.03;1.17;;;4.70;97.80;;;;;;6120215;23;20826;-68
2022/03/21 03:24:29;;;;;;;2.90;2.60;;;4.60;98.00;;;;;;6119672;23;20446;-68
2022/03/21 03:26:56;;;;;;;1.40;1.40;;;4.30;98.00;;;;;;6120211;23;20407;-68
2022/03/21 03:29:23;;;;;;;1.43;1.40;;;4.10;98.00;;;;;;6120563;23;20431;-68
2022/03/21 03:31:50;;;;;;;1.40;1.20;;;;;;;;;;6120392;23;20543;-68
2022/03/21 03:34:19;;;;;;;1.40;1.27;;;4.30;98.00;;;;;;6120844;23;20475;-68
2022/03/21 03:36:46;;;;;;;3.33;1.70;;;4.40;98.00;;;;;;6120248;23;20419;-68
2022/03/21 03:39:13;;;;;;;2.00;1.90;;;4.30;98.00;;;;;;6119639;23;20455;-68
2022/03/21 03:41:43;;;;;;;1.30;1.20;;;4.30;98.00;;;;;;6120077;23;20423;-68
2022/03/21 03:44:11;;;;;;;3.57;1.83;;;4.20;98.00;;;;;;6120138;23;20399;-68
2022/03/21 03:46:38;;;;;;;1.60;1.30;;;4.10;98.00;;;;;;6120308;23;20422;-68
2022/03/21 03:49:05;;;;;;;1.50;1.40;;;4.10;98.00;;;;;;6119632;23;20992;-68
2022/03/21 03:51:33;;;;;;;1.87;1.50;;;4.10;98.00;;;;;;6120015;23;20426;-68
2022/03/21 03:54:00;;;;;;;1.47;1.40;;;3.90;98.00;;;;;;6119599;23;20446;-68
2022/03/21 03:56:27;;;;;;;1.87;1.43;;;3.90;98.00;;;;;;6120197;23;20427;-69
2022/03/21 03:58:54;;;;;;;1.50;1.40;;;3.90;98.00;;;;;;6120317;23;20456;-68
2022/03/21 04:01:21;;;;;;;1.60;1.57;;;3.90;98.00;;;;;;6119917;23;20502;-68
2022/03/21 04:03:51;;;;;;;1.50;1.40;;;3.70;98.00;;;;;;6119782;23;20730;-68
2022/03/21 04:06:21;;;;;;;3.27;2.23;;;3.70;98.00;;;;;;6119652;23;20423;-68
2022/03/21 04:08:51;;;;;;;1.43;1.37;;;3.80;98.00;;;;;;6119886;23;20458;-68
2022/03/21 04:11:19;;;;;;;1.20;1.10;;;3.70;98.00;;;;;;6094398;23;20439;-68
2022/03/21 04:13:47;;;;;;;2.07;1.67;;;3.40;98.00;;;;;;6093426;23;20428;-68
2022/03/21 04:16:15;;;;;;;2.13;1.63;;;3.30;98.00;;;;;;6119965;23;20417;-68
2022/03/21 04:18:42;;;;;;;2.00;1.50;;;3.30;98.00;;;;;;6120964;23;20406;-68
2022/03/21 04:21:09;;;;;;;1.50;1.30;;;3.30;98.00;;;;;;6121017;23;20456;-68
2022/03/21 04:23:36;;;;;;;1.50;1.50;;;3.40;98.00;;;;;;6120537;23;20431;-68
2022/03/21 04:26:04;;;;;;;1.40;1.13;;;3.30;98.00;;;;;;6121010;23;20710;-68
2022/03/21 04:28:31;;;;;;;1.30;1.30;;;3.40;98.00;;;;;;6120834;23;20457;-68
2022/03/21 04:30:58;;;;;;;4.30;1.33;;;3.40;98.00;;;;;;6120900;23;20407;-68
2022/03/21 04:33:25;;;;;;;1.47;1.43;;;3.30;98.00;;;;;;6120403;23;20756;-68
2022/03/21 04:35:52;;;;;;;3.10;2.30;;;3.50;98.00;;;;;;6120919;23;20407;-68
2022/03/21 04:38:20;;;;;;;1.93;1.83;;;3.50;98.00;;;;;;6120690;23;20454;-68
2022/03/21 04:40:48;;;;;;;2.57;2.20;;;3.10;98.00;;;;;;6120888;23;20418;-68
2022/03/21 04:43:18;;;;;;;1.20;1.00;;;3.00;98.00;;;;;;6120454;23;20478;-68
2022/03/21 04:45:48;;;;;;;1.70;1.53;;;2.90;98.00;;;;;;6120766;23;20446;-68
2022/03/21 04:48:15;;;;;;;1.50;1.50;;;2.80;98.00;;;;;;6120952;23;20435;-68
2022/03/21 04:50:43;;;;;;;1.30;1.30;;;2.90;98.00;;;;;;6121001;23;20421;-69
2022/03/21 04:53:10;;;;;;;2.40;2.20;;;2.90;98.00;;;;;;6120938;23;20425;-68
2022/03/21 04:55:38;;;;;;;1.70;1.40;;;2.80;98.00;;;;;;6095171;23;20418;-68
2022/03/21 04:58:05;;;;;;;2.70;2.47;;;2.80;98.00;;;;;;6120760;23;20425;-68
2022/03/21 05:00:33;;;;;;;1.30;1.30;;;2.90;98.00;;;;;;6120642;23;20417;-68
2022/03/21 05:03:07;;;;;;;1.40;1.17;;;2.90;98.00;;;;;;6120807;23;20467;-68
2022/03/21 05:05:34;;;;;;;5.97;1.60;;;2.80;98.00;;;;;;6119909;23;20652;-68
2022/03/21 05:08:05;;;;;;;2.13;1.70;;;2.90;98.00;;;;;;6121048;23;20429;-68
2022/03/21 05:10:34;;;;;;;3.87;3.43;;;2.70;98.00;;;;;;6120832;23;20466;-68
2022/03/21 05:13:01;;;;;;;1.50;1.40;;;2.80;98.00;;;;;;6120831;23;20399;-68
2022/03/21 05:15:28;;;;;;;1.40;1.30;;;2.80;98.00;;;;;;6121296;23;20401;-68
2022/03/21 05:17:56;;;;;;;1.83;1.73;;;2.70;98.00;;;;;;6120890;23;20410;-68
2022/03/21 05:20:23;;;;;;;2.60;1.90;;;2.70;98.00;;;;;;6120621;23;20425;-68
2022/03/21 05:31:02;;;;;;;1.37;1.37;;;2.70;98.00;;;;;;6120471;23;20472;-68
2022/03/21 05:36:16;;;;;;;1.40;1.20;;;2.90;98.00;;;;;;6120881;23;20392;-68
2022/03/21 05:38:45;;;;;;;1.20;1.10;;;2.90;98.00;;;;;;6120922;23;20406;-68
2022/03/21 05:41:15;;;;;;;3.97;3.03;;;2.80;98.00;;;;;;6120987;23;20402;-68
2022/03/21 05:43:43;;;;;;;2.20;2.00;;;2.60;98.00;;;;;;6120446;23;20434;-68
2022/03/21 05:46:12;;;;;;;1.50;1.40;;;2.70;98.00;;;;;;6120928;23;20445;-68
2022/03/21 05:48:54;;;;;;;1.30;1.27;;;2.70;98.00;;;;;;6186487;23;20421;-68
2022/03/21 05:51:23;;;;;;;2.10;1.70;;;2.70;98.00;;;;;;6244671;22;20394;-68
2022/03/21 05:53:51;;;;;;;2.37;1.80;;;2.50;98.00;;;;;;6244550;22;20422;-68
2022/03/21 05:56:18;;;;;;;2.50;2.30;;;2.50;98.00;;;;;;6244589;22;20449;-68
2022/03/21 05:58:45;;;;;;;1.20;1.10;;;2.50;98.00;;;;;;6244904;22;20489;-68
2022/03/21 06:01:12;;;;;;;2.33;2.07;;;2.50;98.00;;;;;;6244339;22;20449;-68
2022/03/21 06:03:40;;;;;;;1.30;1.27;;;2.50;98.00;;;;;;6244731;22;20666;-68
2022/03/21 06:06:08;;;;;;;2.30;2.10;;;2.50;98.00;;;;;;6244515;22;20460;-68
2022/03/21 06:08:35;;;;;;;1.87;1.67;;;2.50;98.00;;;;;;6245009;22;20441;-68
2022/03/21 06:11:04;;;;;;;1.70;1.63;;;2.50;98.00;;;;;;6244212;22;20902;-68
2022/03/21 06:13:33;;;;;;;1.30;1.30;;;2.70;98.00;;;;;;6244308;22;20425;-68
2022/03/21 06:16:04;;;;;;;2.93;1.77;;;2.70;98.00;;;;;;6244123;22;20469;-68
2022/03/21 06:18:32;;;;;;;1.20;1.00;;;2.70;98.00;;;;;;6244660;22;20406;-68
2022/03/21 06:21:01;;;;;;;1.80;1.80;;;2.90;98.00;;;;;;6244213;22;20398;-68
2022/03/21 06:23:28;;;;;;;1.20;1.20;;;3.10;98.00;;;;;;6244457;22;20469;-68
2022/03/21 06:25:56;;;;;;;2.17;1.80;;;3.20;98.00;;;;;;6244694;22;20459;-68
2022/03/21 06:28:24;;;;;;;1.73;1.53;;;3.40;98.00;;;;;;6244628;22;20408;-68
2022/03/21 06:30:51;;;;;;;1.80;1.70;;;3.60;98.00;;;;;;6244454;22;20976;-68
2022/03/21 06:33:18;;;;;;;1.97;1.87;;;3.60;98.00;;;;;;6244696;22;20403;-68
2022/03/21 06:35:46;;;;;;;3.77;2.63;;;3.70;98.00;;;;;;6244435;22;20424;-68
2022/03/21 06:38:14;;;;;;;3.27;2.33;;;3.70;98.00;;;;;;6244139;22;20441;-68
2022/03/21 06:40:43;;;;;;;2.90;2.50;;;3.60;98.00;;;;;;6244122;22;20419;-68
2022/03/21 06:43:10;;;;;;;1.20;1.10;;;3.50;98.00;;;;;;6244337;22;20866;-69
2022/03/21 06:45:37;;;;;;;1.40;1.30;;;3.60;98.00;;;;;;6243905;22;20465;-68
2022/03/21 06:48:05;;;;;;;2.53;1.90;;;3.60;98.00;;;;;;6205627;22;20475;-67
2022/03/21 06:50:32;;;;;;;1.53;1.40;;;3.70;98.00;;;;;;6119808;23;20423;-68
2022/03/21 06:52:59;;;;;;;1.73;1.60;;;3.80;98.00;;;;;;6119885;23;20422;-67
2022/03/21 06:55:27;;;;;;;3.23;2.60;;;4.00;98.00;;;;;;6119997;23;20416;-68
2022/03/21 06:57:55;;;;;;;1.30;1.20;;;4.20;98.00;;;;;;6120329;23;20461;-68
2022/03/21 07:00:22;;;;;;;2.50;1.83;;;4.30;98.00;;;;;;6120076;23;20424;-67
2022/03/21 07:02:49;;;;;;;2.40;1.20;;;4.40;98.00;;;;;;6119309;23;20450;-67
2022/03/21 07:05:16;;;;;;;2.70;2.53;;;4.40;98.00;;;;;;6120012;23;20483;-68
2022/03/21 07:07:43;;;;;;;2.37;2.10;;;4.60;98.00;;;;;;6119973;23;20419;-67
2022/03/21 07:10:10;;;;;;;2.80;1.83;;;4.60;98.00;;;;;;6120049;23;20790;-66
2022/03/21 07:12:39;;;;;;;1.87;1.77;;;4.80;98.00;;;;;;6094843;23;20457;-67
2022/03/21 07:15:07;;;;;;;1.40;1.20;;;4.90;98.00;;;;;;6119809;23;20403;-67
2022/03/21 07:17:37;;;;;;;3.27;2.13;;;4.90;98.00;;;;;;6119812;23;20916;-67
2022/03/21 07:20:04;;;;;;;2.00;1.90;;;4.90;98.00;;;;;;6119962;23;20462;-67
2022/03/21 07:22:33;;;;;;;2.60;1.53;;;4.90;98.00;;;;;;6120384;23;20720;-67
2022/03/21 07:25:00;;;;;;;3.50;2.20;;;4.80;98.00;;;;;;6120082;23;20762;-67
2022/03/21 07:27:27;;;;;;;1.57;1.53;;;4.90;98.00;;;;;;6120345;23;20724;-68
2022/03/21 07:29:55;;;;;;;2.03;1.67;;;5.10;98.00;;;;;;6120062;23;20447;-67
2022/03/21 07:32:22;;;;;;;2.33;2.07;;;5.40;98.00;;;;;;6120047;23;20458;-67
2022/03/21 07:34:49;;;;;;;1.53;1.43;;;5.50;98.00;;;;;;6119563;23;20396;-67
2022/03/21 07:37:16;;;;;;;1.63;1.33;;;5.70;98.00;;;;;;6120027;23;20402;-67
2022/03/21 07:39:46;;;;;;;4.20;3.03;;;5.90;98.00;;;;;;6119862;23;20423;-67
2022/03/21 07:42:16;;;;;;;2.13;1.87;;;6.00;98.00;;;;;;6119908;23;20736;-67
2022/03/21 07:47:29;;;;;;;2.63;1.50;;;6.20;98.00;;;;;;6120005;23;20403;-67
2022/03/21 07:49:56;;;;;;;3.63;2.33;;;6.10;98.00;;;;;;6120140;23;20411;-67
2022/03/21 07:52:24;;;;;;;1.63;1.40;;;6.30;98.00;;;;;;6093505;23;20424;-67
2022/03/21 07:54:54;;;;;;;3.70;2.53;;;6.40;98.00;;;;;;6119914;23;20429;-67
2022/03/21 07:57:22;;;;;;;1.40;1.30;;;6.60;98.00;;;;;;6119005;23;20872;-67
2022/03/21 07:59:49;;;;;;;2.30;1.90;;;6.80;98.00;;;;;;6094453;23;20470;-67
2022/03/21 08:02:17;;;;;;;2.20;1.87;;;6.80;98.00;;;;;;6119795;23;20425;-68
2022/03/21 08:04:46;;;;;;;1.87;1.77;;;7.00;97.20;;;;;;6117054;23;20454;-68
2022/03/21 08:07:13;;;;;;;1.97;1.90;;;7.20;96.90;;;;;;6118185;23;20756;-71
2022/03/21 08:09:43;;;;;;;2.53;1.60;;;7.40;94.70;;;;;;6118762;23;20439;-70
2022/03/21 08:12:10;;;;;;;2.33;2.17;;;7.60;94.40;;;;;;6118412;23;20468;-67
2022/03/21 08:14:38;;;;;;;3.33;2.97;;;7.80;95.00;;;;;;6118773;23;20422;-67
2022/03/21 08:17:06;;;;;;;2.53;1.90;;;7.90;92.80;;;;;;6118750;23;20402;-68
2022/03/21 08:19:33;;;;;;;2.60;2.03;;;7.90;93.00;;;;;;6118567;23;20701;-66
2022/03/21 08:22:04;;;;;;;3.40;2.97;;;8.00;93.90;;;;;;6118479;23;20736;-68
2022/03/21 08:24:34;;;;;;;3.23;2.60;;;7.90;92.60;;;;;;6117948;23;20603;-68
2022/03/21 08:27:01;;;;;;;2.00;1.80;;;8.10;91.90;;;;;;6118572;23;20456;-67
2022/03/21 08:29:30;;;;;;;1.83;1.73;;;8.10;91.80;;;;;;6118233;23;20417;-68
2022/03/21 08:31:57;;;;;;;3.60;1.50;;;8.30;92.30;;;;;;6118581;23;20408;-68
2022/03/21 08:34:24;;;;;;;3.50;2.90;;;8.40;90.00;;;;;;6119259;23;20423;-66
2022/03/21 08:36:51;;;;;;;2.20;1.53;;;8.50;89.40;;;;;;6118846;23;20452;-67
2022/03/21 08:39:19;;;;;;;1.70;1.63;;;8.70;88.20;;;;;;6118968;23;20404;-66
2022/03/21 08:41:46;;;;;;;2.80;1.97;;;8.90;87.60;;;;;;6119548;23;20405;-67
2022/03/21 08:44:14;;;;;;;4.90;2.53;;;9.10;85.30;;;;;;6118706;23;20964;-64
2022/03/21 08:46:45;;;;;;;5.20;2.50;;;9.20;86.60;;;;;;6092324;23;20408;-67
2022/03/21 08:49:27;;;;;;;3.80;1.73;;;9.30;86.90;;;;;;6218361;23;20444;-67
2022/03/21 08:51:56;;;;;;;6.23;2.47;;;9.40;84.70;;;;;;6242703;22;20405;-67
2022/03/21 08:54:24;;;;;;;2.23;1.93;;;9.60;84.60;;;;;;6243056;22;20748;-67
2022/03/21 08:56:51;;;;;;;3.53;2.60;;;9.70;84.70;;;;;;6242611;22;20431;-67
2022/03/21 08:59:18;;;;;;;6.10;1.50;;;9.80;84.00;;;;;;6242565;22;20404;-67
2022/03/21 09:01:45;;;;;;;1.87;1.60;;;9.90;84.60;;;;;;6242597;22;20482;-68
2022/03/21 09:04:12;;;;;;;1.70;1.60;;;10.10;82.50;;;;;;6244052;22;20476;-66
2022/03/21 09:06:39;;;;;;;5.90;2.50;;;10.30;84.20;;;;;;6244099;22;20405;-67
2022/03/21 09:09:07;;;;;;;5.83;3.33;;;10.50;83.30;;;;;;6244419;22;20430;-67
2022/03/21 09:11:37;;;;;;;2.50;2.03;;;10.60;82.30;;;;;;6242462;23;20418;-67
2022/03/21 09:14:06;;;;;;;2.30;1.60;;;10.70;81.30;;;;;;6244149;22;20401;-67
2022/03/21 09:16:33;;;;;;;3.07;1.90;;;11.00;81.30;;;;;;6244263;22;20400;-67
2022/03/21 09:19:00;;;;;;;2.43;1.80;;;11.20;80.50;;;;;;6242582;23;20430;-67
2022/03/21 09:21:28;;;;;;;4.23;1.93;;;11.40;79.50;;;;;;6244316;22;20401;-67
2022/03/21 09:23:55;;;;;;;3.83;2.43;;;11.60;80.20;;;;;;6245137;22;20754;-67
2022/03/21 09:26:22;;;;;;;1.70;1.57;;;11.80;79.90;;;;;;6244837;22;20407;-67
2022/03/21 09:28:59;;;;;;;3.70;2.23;;;12.00;78.80;;;;;;6245169;22;20417;-67
2022/03/21 09:31:27;;;;;;;4.30;2.10;;;12.10;79.10;;;;;;6244577;22;20404;-67
2022/03/21 09:33:54;;;;;;;3.67;2.33;;;12.20;79.10;;;;;;6254878;22;20416;-67
2022/03/21 09:36:21;;;;;;;3.50;2.57;;;12.20;78.30;;;;;;6244598;22;20471;-67
2022/03/21 09:38:48;;;;;;;2.57;2.13;;;12.30;78.70;;;;;;6244971;22;20418;-67
2022/03/21 09:41:22;;;;;;;2.17;2.00;;;12.40;79.20;;;;;;6244814;22;20408;-67
2022/03/21 09:43:52;;;;;;;3.00;1.87;;;12.50;78.10;;;;;;6244690;22;20426;-67
2022/03/21 09:46:20;;;;;;;2.33;2.13;;;12.60;78.60;;;;;;6244856;22;20403;-67
2022/03/21 09:48:48;;;;;;;1.90;1.87;;;12.70;78.10;;;;;;6159248;22;20800;-67
2022/03/21 09:51:22;;;;;;;8.13;2.50;;;12.80;77.40;;;;;;6120134;23;20407;-67
2022/03/21 09:53:50;;;;;;;3.70;2.17;;;12.90;78.70;;;;;;6119822;23;20419;-67
2022/03/21 09:56:17;;;;;;;3.93;2.27;;;13.00;78.10;;;;;;6120520;23;20771;-67
2022/03/21 09:58:44;;;;;;;3.50;2.17;;;13.30;79.00;;;;;;6120207;23;20455;-67
2022/03/21 10:01:13;;;;;;;3.50;1.90;;;13.60;77.50;;;;;;6120533;23;20420;-67
2022/03/21 10:03:41;;;;;;;3.00;2.37;;;13.80;75.20;;;;;;6120586;23;20445;-67
2022/03/21 10:06:26;;;;;;;2.00;1.80;;;13.80;75.80;;;;;;6119806;23;20427;-67
2022/03/21 10:09:05;;;;;;;3.57;2.77;;;13.80;75.50;;;;;;6119889;23;20457;-67
2022/03/21 10:11:32;;;;;;;2.90;2.60;;;13.80;74.60;;;;;;6120352;23;20434;-67
2022/03/21 10:14:01;;;;;;;4.30;2.27;;;13.70;74.10;;;;;;6120049;23;20429;-67
2022/03/21 10:16:30;;;;;;;4.83;3.40;;;13.80;74.40;;;;;;6119962;23;20984;-67
2022/03/21 10:18:58;;;;;;;2.70;2.20;;;13.80;74.00;;;;;;6119889;23;20659;-67
2022/03/21 10:21:27;;;;;;;2.37;1.73;;;13.90;75.40;;;;;;6120173;23;20472;-67
2022/03/21 10:24:02;;;;;;;2.07;1.93;;;13.80;75.30;;;;;;6120364;23;20504;-67
2022/03/21 10:26:31;;;;;;;2.37;1.90;;;13.90;75.40;;;;;;6120077;23;20413;-67
2022/03/21 10:28:59;;;;;;;6.37;2.70;;;14.00;75.70;;;;;;6120726;23;20402;-67
2022/03/21 10:31:39;;;;;;;2.73;2.53;;;14.10;75.70;;;;;;6071407;23;20448;-67
2022/03/21 10:34:09;;;;;;;7.37;2.63;;;14.10;74.50;;;;;;6120558;23;20400;-67
2022/03/21 10:36:56;;;;;;;2.33;1.80;;;14.40;74.40;;;;;;6118676;23;20474;-65
2022/03/21 10:39:24;;;;;;;2.60;2.33;;;14.60;75.30;;;;;;6118960;23;20468;-66
2022/03/21 10:41:56;;;;;;;5.80;2.80;;;14.90;72.70;;;;;;6118982;23;20461;-65
2022/03/21 10:44:23;;;;;;;3.20;2.13;;;15.10;73.30;;;;;;6119175;23;20432;-67
2022/03/21 10:46:54;;;;;;;2.80;1.90;;;15.20;72.30;;;;;;6093519;23;20506;-65
2022/03/21 10:49:30;;;;;;;2.73;2.53;;;15.50;70.70;;;;;;6117732;23;20442;-67
2022/03/21 10:51:57;;;;;;;3.03;2.70;;;15.90;69.40;;;;;;6118711;23;20909;-66
2022/03/21 10:54:43;;;;;;;5.60;2.80;;;16.10;69.60;;;;;;6119722;23;20442;-66
2022/03/21 10:57:27;;;;;;;2.80;1.70;;;16.30;68.80;;;;;;6119057;23;20464;-66
2022/03/21 11:00:12;;;;;;;3.50;2.33;;;16.60;68.80;;;;;;6119102;23;20407;-66
2022/03/21 11:02:52;;;;;;;3.53;2.10;;;16.70;66.30;;;;;;6119201;23;20439;-65
2022/03/21 11:05:20;;;;;;;2.63;1.77;;;16.90;65.10;;;;;;6118899;23;20469;-65
2022/03/21 11:07:48;;;;;;;5.83;2.60;;;17.00;64.40;;;;;;6119614;23;20437;-66
2022/03/21 11:10:15;;;;;;;5.13;2.70;;;17.20;64.30;;;;;;6118896;23;20448;-66
2022/03/21 11:12:44;;;;;;;3.80;2.13;;;17.30;66.20;;;;;;6119026;23;20452;-66
2022/03/21 11:15:13;;;;;;;3.50;2.50;;;17.60;64.50;;;;;;6118953;23;20403;-67
2022/03/21 11:17:42;;;;;;;2.87;1.93;;;17.80;64.00;;;;;;6119211;23;20452;-67
2022/03/21 11:20:13;;;;;;;3.20;1.83;;;18.00;63.30;;;;;;6119090;23;20401;-67
2022/03/21 11:22:41;;;;;;;3.93;2.70;;;18.20;63.50;;;;;;6119354;23;20490;-67
2022/03/21 11:25:10;;;;;;;3.40;2.33;;;18.40;63.90;;;;;;6118981;23;20504;-67
2022/03/21 11:28:02;;;;;;;4.87;2.67;;;18.70;61.50;;;;;;6118724;23;20547;-67
2022/03/21 11:30:42;;;;;;;4.33;3.20;;;19.00;62.40;;;;;;6119065;23;20416;-67
2022/03/21 11:33:20;;;;;;;3.40;2.70;;;19.10;62.10;;;;;;6119751;23;20433;-67
2022/03/21 11:35:59;;;;;;;3.20;1.97;;;19.30;61.90;;;;;;6118599;23;20884;-67
2022/03/21 11:38:28;;;;;;;4.57;3.00;;;19.40;60.70;;;;;;6118957;23;20475;-67
2022/03/21 11:41:21;;;;;;;5.07;2.57;;;19.60;62.00;;;;;;6118899;23;20474;-67
2022/03/21 11:44:14;;;;;;;19.17;2.47;;;19.80;60.50;;;;;;6119837;23;20436;-67
2022/03/21 11:46:42;;;;;;;5.00;3.43;;;19.90;59.90;;;;;;6118646;23;20421;-67
2022/03/21 11:49:42;;;;;;;4.53;2.60;;;20.10;59.80;;;;;;6118322;23;20440;-67
2022/03/21 11:52:11;;;;;;;3.90;2.70;;;20.20;59.40;;;;;;6118813;23;20418;-67
2022/03/21 11:54:38;;;;;;;5.10;3.13;;;20.20;59.50;;;;;;6118508;23;20447;-67
2022/03/21 11:57:06;;;;;;;3.80;2.83;;;20.20;60.00;;;;;;6118296;23;20421;-67
2022/03/21 11:59:58;;;;;;;4.53;2.73;;;20.10;58.20;;;;;;6118720;23;20402;-67
2022/03/21 12:02:57;;;;;;;3.23;2.17;;;20.10;58.30;;;;;;6118504;23;20780;-67
2022/03/21 12:05:53;;;;;;;5.40;3.00;;;20.10;58.70;;;;;;6118222;23;20444;-67
2022/03/21 12:08:48;;;;;;;4.63;2.77;;;19.80;61.40;;;;;;6118721;23;20410;-67
2022/03/21 12:12:04;;;;;;;4.27;2.60;;;19.50;60.00;;;;;;6118324;23;20888;-67
2022/03/21 12:14:44;;;;;;;4.40;3.00;;;19.30;61.60;;;;;;6118385;23;20417;-67
2022/03/21 12:17:41;;;;;;;3.77;2.70;;;19.50;61.60;;;;;;6118896;23;20431;-67
2022/03/21 12:20:10;;;;;;;6.30;3.30;;;19.60;60.70;;;;;;6118590;23;20398;-67
2022/03/21 12:22:40;;;;;;;4.93;2.67;;;19.90;60.10;;;;;;6118697;23;20644;-67
2022/03/21 12:25:14;;;;;;;3.67;2.40;;;20.10;60.70;;;;;;6118257;23;20441;-67
2022/03/21 12:27:42;;;;;;;6.37;2.67;;;20.30;59.80;;;;;;6118336;23;20487;-67
2022/03/21 12:30:41;;;;;;;11.43;3.57;;;20.40;59.90;;;;;;6118064;23;20420;-66
2022/03/21 12:33:29;;;;;;;3.77;2.87;;;20.30;59.90;;;;;;6092461;23;20824;-65
2022/03/21 12:36:08;;;;;;;6.37;2.60;;;20.20;60.80;;;;;;6118316;23;20401;-67
2022/03/21 12:38:39;;;;;;;4.33;2.43;;;20.40;59.60;;;;;;6119401;23;20405;-67
2022/03/21 12:41:13;;;;;;;4.43;2.83;;;20.80;58.90;;;;;;6119353;23;20444;-67
2022/03/21 12:43:51;;;;;;;3.93;2.67;;;20.90;56.90;;;;;;6120266;23;20703;-67
2022/03/21 12:46:20;;;;;;;6.80;3.03;;;21.00;58.20;;;;;;6119649;23;20436;-67
2022/03/21 12:48:49;;;;;;;4.37;3.30;;;21.50;58.40;;;;;;6119501;23;20482;-66
2022/03/21 12:51:26;;;;;;;4.80;2.60;;;21.70;58.00;;;;;;6118819;23;20421;-66
2022/03/21 12:53:56;;;;;;;7.53;2.60;;;21.50;57.60;;;;;;6119504;23;20851;-66
2022/03/21 12:56:26;;;;;;;3.80;2.67;;;21.30;56.20;;;;;;6104177;23;20501;-66
2022/03/21 12:58:59;;;;;;;6.73;3.40;;;21.20;56.60;;;;;;6119705;23;20463;-66
2022/03/21 13:01:27;;;;;;;3.20;2.17;;;21.20;57.00;;;;;;6119699;23;20455;-66
2022/03/21 13:10:32;;;;;;;3.67;2.10;;;21.20;57.30;;;;;;6119334;23;20470;-66
2022/03/21 13:12:35;;;;;;;4.13;2.40;;;21.90;55.00;;;;;;6120453;23;20421;-67
2022/03/21 13:15:07;;;;;;;4.23;2.60;;;22.10;56.70;;;;;;6120223;23;20398;-67
2022/03/21 13:17:49;;;;;;;5.63;3.00;;;22.00;55.60;;;;;;6120743;23;20467;-67
2022/03/21 13:20:19;;;;;;;3.93;2.77;;;22.10;56.50;;;;;;6120624;23;20467;-67
2022/03/21 13:22:46;;;;;;;4.37;2.90;;;22.40;56.60;;;;;;6120335;23;20488;-67
2022/03/21 13:25:24;;;;;;;6.03;3.07;;;22.30;54.50;;;;;;6120279;23;20449;-67
2022/03/21 13:27:53;;;;;;;6.00;3.40;;;22.20;55.40;;;;;;6120483;23;20985;-67
2022/03/21 13:30:20;;;;;;;7.33;2.30;;;22.30;54.90;;;;;;6120925;23;20906;-67
2022/03/21 13:32:47;;;;;;;4.20;2.63;;;22.40;55.80;;;;;;6095334;23;20425;-66